Flight Track Log - Related Links

Times and Time Zones

All times are in EDT time to prevent confusion due to time zone crossing. See the CTL17 flight status page for this flight to view local times or setup timezone preferences in your user account.


Time Position Orientation Groundspeed Altitude Reporting Facility
EDT Latitude Longitude Course Direction KTS MPH feet Rate Location/Type
Wed 05:39:04 PM 42.1958 -83.5878 225° Southwest 131 151 1,800  Level Cleveland Center
Wed 05:39:59 PM 42.1644 -83.5864 178° South 146 168 2,400 621 Climbing Cleveland Center
Wed 05:41:00 PM 42.1206 -83.5897 183° South 137 158 3,000 331 Climbing Cleveland Center
Wed 05:42:06 PM 42.0747 -83.5933 183° South 167 192 3,100  Climbing Cleveland Center
Wed 05:43:07 PM 42.0356 -83.5803 166° South 162 186 3,000 -49 Descending Cleveland Center
Wed 05:44:08 PM 42.0181 -83.5236 113° Southeast 161 185 3,000  Level Cleveland Center
Wed 05:45:09 PM 42.0050 -83.4669 107° East 163 188 3,000 52 Level Cleveland Center
Wed 05:46:04 PM 41.9897 -83.4133 111° Southeast 163 188 3,100  Climbing Cleveland Center
Wed 05:47:05 PM 41.9722 -83.3539 112° Southeast 166 191 3,000 -49 Descending Cleveland Center
Wed 05:48:06 PM 41.9569 -83.2972 110° East 165 190 3,000 197 Level Cleveland Center
Wed 05:49:07 PM 41.9436 -83.2408 108° East 164 189 3,400 443 Climbing Cleveland Center
Wed 05:50:08 PM 41.9283 -83.1817 109° East 161 185 3,900 541 Climbing Cleveland Center
Wed 05:51:09 PM 41.9131 -83.1253 110° East 157 181 4,500 516 Climbing Cleveland Center
Wed 05:52:16 PM 41.8956 -83.0686 113° Southeast 157 181 5,000 222 Climbing Cleveland Center
Wed 05:53:24 PM 41.8781 -83.0067 111° Southeast 166 191 5,000  Level Cleveland Center
Wed 05:54:49 PM 41.8467 -82.9050 112° Southeast 188 216 5,000  Level Cleveland Center
Wed 05:56:02 PM 41.8275 -82.8319 109° East 182 209 5,000  Level Cleveland Center
Wed 05:57:02 PM 41.8078 -82.7700 113° Southeast 182 209 5,000  Level Cleveland Center
Wed 05:58:03 PM 41.7922 -82.7025 107° East 182 209 5,000  Level Cleveland Center
Wed 05:58:58 PM 41.7808 -82.6464 105° East 181 208 5,000  Level Cleveland Center
Wed 05:59:59 PM 41.7653 -82.5764 107° East 179 206 5,000  Level Cleveland Center
Wed 06:01:00 PM 41.7533 -82.5192 106° East  Level FlightAware Approximate
Wed 06:02:18 PM 41.7408 -82.4281 106° East 181 208 5,000  Level Cleveland Center
Wed 06:03:12 PM 41.7250 -82.3664 109° East 184 212 5,000  Level Cleveland Center
Wed 06:04:13 PM 41.7136 -82.2994 103° East 185 213 5,000 -164 Level Cleveland Center
Wed 06:05:02 PM 41.7019 -82.2461 106° East 192 221 4,700 -550 Descending Cleveland Center
Wed 06:06:02 PM 41.6842 -82.1792 110° East 194 223 4,000 -694 Descending Cleveland Center
Wed 06:07:03 PM 41.6725 -82.1064 102° East 202 232 3,300 -626 Descending Cleveland Center
Wed 06:07:57 PM 41.6525 -82.0450 114° Southeast 194 223 2,800 -522 Descending Cleveland Center
Wed 06:08:58 PM 41.6261 -81.9803 119° Southeast 191 220 2,300 -448 Descending Cleveland Center
Wed 06:10:11 PM 41.6019 -81.9106 115° Southeast 175 201 1,800 -361 Descending Cleveland Center
Wed 06:11:11 PM 41.5797 -81.8544 118° Southeast 170 196 1,500 -198 Descending Cleveland Center
Wed 06:13:00 PM 41.5656 -81.7489 100° East  Level FlightAware Approximate
Wed 06:14:13 PM 41.5103 -81.7144 100° East 128 147 1,000  Level Cleveland Center
Wed 06:16:00 PM 41.5175 -81.6833 217° Southwest  Level Estimated

Login

Don't have an account? Register now (free) for customized features, flight alerts, and more!